createdAt,value
2019-03-02T00:00:56.855Z,0.00
2019-03-02T00:01:56.907Z,0.00
2019-03-02T00:02:59.800Z,0.00
2019-03-02T00:03:57.006Z,0.00
2019-03-02T00:04:57.035Z,0.00
2019-03-02T00:06:00.742Z,0.00
2019-03-02T00:06:57.124Z,0.00
2019-03-02T00:07:57.226Z,0.00
2019-03-02T00:08:59.943Z,0.00
2019-03-02T00:09:57.249Z,0.00
2019-03-02T00:10:57.295Z,0.00
2019-03-02T00:11:57.516Z,0.00
2019-03-02T00:12:57.411Z,0.00
2019-03-02T00:13:57.457Z,0.00
2019-03-02T00:14:57.471Z,0.00
2019-03-02T00:15:57.537Z,0.00
2019-03-02T00:16:57.558Z,0.00
2019-03-02T00:17:57.602Z,0.00
2019-03-02T00:18:57.673Z,0.00
2019-03-02T00:19:57.706Z,0.00
2019-03-02T00:20:57.745Z,0.00
2019-03-02T00:21:57.779Z,0.00
2019-03-02T00:22:57.873Z,0.00
2019-03-02T00:23:57.911Z,0.00
2019-03-02T00:24:59.040Z,0.00
2019-03-02T00:25:57.953Z,0.00
2019-03-02T00:26:57.997Z,0.00
2019-03-02T00:27:59.228Z,0.00
2019-03-02T00:28:58.112Z,0.00
2019-03-02T00:29:58.127Z,0.00
2019-03-02T00:30:58.714Z,0.00
2019-03-02T00:31:58.218Z,0.00
2019-03-02T00:32:58.261Z,0.00
2019-03-02T00:33:58.393Z,0.00
2019-03-02T00:34:58.374Z,0.00
2019-03-02T00:35:58.392Z,0.00
2019-03-02T00:36:58.594Z,0.00
2019-03-02T00:37:58.477Z,0.00
2019-03-02T00:38:58.546Z,0.00
2019-03-02T00:39:58.580Z,0.00
2019-03-02T00:40:58.610Z,0.00
2019-03-02T00:41:58.685Z,0.00
2019-03-02T00:42:58.708Z,0.00
2019-03-02T00:43:59.812Z,0.00
2019-03-02T00:44:58.783Z,0.00
2019-03-02T00:45:58.828Z,0.00
2019-03-02T00:46:59.656Z,0.00
2019-03-02T00:47:58.927Z,0.00
2019-03-02T00:48:59.020Z,0.00
2019-03-02T00:50:00.940Z,0.00
2019-03-02T00:50:59.063Z,0.00
2019-03-02T00:51:59.093Z,0.00
2019-03-02T00:52:59.358Z,0.00
2019-03-02T00:53:59.230Z,0.00
2019-03-02T00:54:59.229Z,0.00
2019-03-02T00:55:59.280Z,0.00
2019-03-02T00:56:59.314Z,0.00
2019-03-02T00:57:59.366Z,0.00
2019-03-02T00:59:00.592Z,0.00
2019-03-02T00:59:59.474Z,0.00
2019-03-02T01:00:59.504Z,0.00
2019-03-02T01:02:00.741Z,0.00
2019-03-02T01:02:59.578Z,0.00
2019-03-02T01:03:59.623Z,0.00
2019-03-02T01:05:01.804Z,0.00
2019-03-02T01:05:59.715Z,0.00
2019-03-02T01:06:59.758Z,0.00
2019-03-02T01:08:00.910Z,0.00
2019-03-02T01:08:59.859Z,0.00
2019-03-02T01:09:59.919Z,0.00
2019-03-02T01:10:59.989Z,0.00
2019-03-02T01:11:59.980Z,0.00
2019-03-02T01:13:00.021Z,0.00
2019-03-02T01:14:00.072Z,0.00
2019-03-02T01:15:00.186Z,0.00
2019-03-02T01:16:00.158Z,0.00
2019-03-02T01:17:00.203Z,0.00
2019-03-02T01:18:00.291Z,0.00
2019-03-02T01:19:00.291Z,0.00
2019-03-02T01:20:00.375Z,0.00
2019-03-02T01:21:03.595Z,0.00
2019-03-02T01:22:00.415Z,0.00
2019-03-02T01:23:00.471Z,0.00
2019-03-02T01:24:03.363Z,0.00
2019-03-02T01:25:00.550Z,0.00
2019-03-02T01:26:00.636Z,0.00
2019-03-02T01:27:00.680Z,0.00
2019-03-02T01:28:00.693Z,0.00
2019-03-02T01:29:00.772Z,0.00
2019-03-02T01:30:00.770Z,0.00
2019-03-02T01:31:01.831Z,0.00
2019-03-02T01:32:00.860Z,0.00
2019-03-02T01:33:00.903Z,0.00
2019-03-02T01:34:04.420Z,0.00
2019-03-02T01:35:00.986Z,0.00
2019-03-02T01:36:01.185Z,0.00
2019-03-02T01:37:01.128Z,0.00
2019-03-02T01:38:01.133Z,0.00
2019-03-02T01:39:01.170Z,0.00
2019-03-02T01:40:04.836Z,0.00
2019-03-02T01:41:01.259Z,0.00
2019-03-02T01:42:01.337Z,0.00
2019-03-02T01:43:02.007Z,0.00
2019-03-02T01:44:01.387Z,0.00
2019-03-02T01:45:01.436Z,0.00
2019-03-02T01:46:03.379Z,0.00
2019-03-02T01:47:01.545Z,0.00
2019-03-02T01:48:01.578Z,0.00
2019-03-02T01:49:01.779Z,0.00
2019-03-02T01:50:01.747Z,0.00
2019-03-02T01:51:01.698Z,0.00
2019-03-02T01:52:01.777Z,0.00
2019-03-02T01:53:01.788Z,0.00
2019-03-02T01:54:01.833Z,0.00
2019-03-02T01:55:01.870Z,0.00
2019-03-02T01:56:02.790Z,0.00
2019-03-02T01:57:02.076Z,0.00
2019-03-02T01:58:02.063Z,0.00
2019-03-02T01:59:03.965Z,0.00
2019-03-02T02:00:02.114Z,0.00
2019-03-02T02:01:02.138Z,0.00
2019-03-02T02:02:02.182Z,0.00
2019-03-02T02:03:02.246Z,0.00
2019-03-02T02:04:02.264Z,0.00
2019-03-02T02:05:02.321Z,0.00
2019-03-02T02:06:03.796Z,0.00
2019-03-02T02:07:02.407Z,0.00
2019-03-02T02:08:02.482Z,0.00
2019-03-02T02:09:05.659Z,0.00
2019-03-02T02:10:02.549Z,0.00
2019-03-02T02:11:02.589Z,0.00
2019-03-02T02:12:02.650Z,0.00
2019-03-02T02:13:05.831Z,0.00
2019-03-02T02:14:02.708Z,0.00
2019-03-02T02:15:02.757Z,0.00
2019-03-02T02:16:05.621Z,0.00
2019-03-02T02:17:02.842Z,0.00
2019-03-02T02:18:02.922Z,0.00
2019-03-02T02:19:03.376Z,0.00
2019-03-02T02:20:03.010Z,0.00
2019-03-02T02:21:03.021Z,0.00
2019-03-02T02:22:03.097Z,0.00
2019-03-02T02:23:03.151Z,0.00
2019-03-02T02:24:03.152Z,0.00
2019-03-02T02:25:03.197Z,0.00
2019-03-02T02:26:03.241Z,0.00
2019-03-02T02:27:03.287Z,0.00
2019-03-02T02:28:03.375Z,0.00
2019-03-02T02:29:04.492Z,0.00
2019-03-02T02:30:03.431Z,0.00
2019-03-02T02:31:06.394Z,0.00
2019-03-02T02:32:03.504Z,0.00
2019-03-02T02:33:05.665Z,0.00
2019-03-02T02:34:03.598Z,0.00
2019-03-02T02:35:03.649Z,0.00
2019-03-02T02:36:03.676Z,0.00
2019-03-02T02:37:03.724Z,0.00
2019-03-02T02:38:03.814Z,0.00
2019-03-02T02:39:03.829Z,0.00
2019-03-02T02:40:08.015Z,0.00
2019-03-02T02:41:03.908Z,0.00
2019-03-02T02:42:05.128Z,0.00
2019-03-02T02:43:03.995Z,0.00
2019-03-02T02:44:04.057Z,0.00
2019-03-02T02:45:04.076Z,0.00
2019-03-02T02:46:04.135Z,0.00
2019-03-02T02:47:07.358Z,0.00
2019-03-02T02:48:04.214Z,0.00
2019-03-02T02:49:05.303Z,0.00
2019-03-02T02:50:04.296Z,0.00
2019-03-02T02:51:09.721Z,0.00
2019-03-02T02:52:04.380Z,0.00
2019-03-02T02:53:06.940Z,0.00
2019-03-02T02:54:04.547Z,0.00
2019-03-02T02:55:04.515Z,0.00
2019-03-02T02:56:04.582Z,0.00
2019-03-02T02:57:04.603Z,0.00
2019-03-02T02:58:04.643Z,0.00
2019-03-02T02:59:04.705Z,0.00
2019-03-02T03:00:04.731Z,0.00
2019-03-02T03:01:04.794Z,0.00
2019-03-02T03:02:06.468Z,0.00
2019-03-02T03:03:04.912Z,0.00
2019-03-02T03:04:04.936Z,0.00
2019-03-02T03:05:04.950Z,0.00
2019-03-02T03:06:04.995Z,0.00
2019-03-02T03:07:07.138Z,0.00
2019-03-02T03:08:05.091Z,0.00
2019-03-02T03:09:09.343Z,0.00
2019-03-02T03:10:05.173Z,0.00
2019-03-02T03:11:06.549Z,0.00
2019-03-02T03:12:05.255Z,0.00
2019-03-02T03:13:05.304Z,0.00
2019-03-02T03:14:05.401Z,0.00
2019-03-02T03:15:05.414Z,0.00
2019-03-02T03:16:05.442Z,0.00
2019-03-02T03:17:05.488Z,0.00
2019-03-02T03:18:11.661Z,0.00
2019-03-02T03:19:05.585Z,0.00
2019-03-02T03:20:10.392Z,0.00
2019-03-02T03:21:05.653Z,0.00
2019-03-02T03:22:07.188Z,0.00
2019-03-02T03:23:05.741Z,0.00
2019-03-02T03:24:05.815Z,0.00
2019-03-02T03:25:05.858Z,0.00
2019-03-02T03:26:05.895Z,0.00
2019-03-02T03:27:09.081Z,0.00
2019-03-02T03:28:05.965Z,0.00
2019-03-02T03:29:09.781Z,0.00
2019-03-02T03:30:06.067Z,0.00
2019-03-02T03:31:06.131Z,0.00
2019-03-02T03:32:08.948Z,0.00
2019-03-02T03:33:06.241Z,0.00
2019-03-02T03:34:06.260Z,0.00
2019-03-02T03:35:15.729Z,0.00
2019-03-02T03:36:06.330Z,0.00
2019-03-02T03:37:08.456Z,0.00
2019-03-02T03:38:06.451Z,0.00
2019-03-02T03:39:07.177Z,0.00
2019-03-02T03:40:06.560Z,0.00
2019-03-02T03:41:06.863Z,0.00
2019-03-02T03:42:06.571Z,0.00
2019-03-02T03:43:06.612Z,0.00
2019-03-02T03:44:06.658Z,0.00
2019-03-02T03:45:06.699Z,0.00
2019-03-02T03:46:06.763Z,0.00
2019-03-02T03:47:06.862Z,0.00
2019-03-02T03:48:06.832Z,0.00
2019-03-02T03:49:06.878Z,0.00
2019-03-02T03:50:09.289Z,0.00
2019-03-02T03:51:06.995Z,0.00
2019-03-02T03:52:09.142Z,0.00
2019-03-02T03:53:07.052Z,0.00
2019-03-02T03:54:08.796Z,0.00
2019-03-02T03:55:07.151Z,0.00
2019-03-02T03:56:07.204Z,0.00
2019-03-02T03:57:07.230Z,0.00
2019-03-02T03:58:07.271Z,0.00
2019-03-02T03:59:07.316Z,0.00
2019-03-02T04:00:07.365Z,0.00
2019-03-02T04:01:07.467Z,0.00
2019-03-02T04:02:07.460Z,0.00
2019-03-02T04:03:08.899Z,0.00
2019-03-02T04:04:07.537Z,0.00
2019-03-02T04:05:08.526Z,0.00
2019-03-02T04:06:07.650Z,0.00
2019-03-02T04:07:08.211Z,0.00
2019-03-02T04:08:07.713Z,0.00
2019-03-02T04:09:08.717Z,0.00
2019-03-02T04:10:07.801Z,0.00
2019-03-02T04:11:07.861Z,0.00
2019-03-02T04:12:07.988Z,0.00
2019-03-02T04:13:07.989Z,0.00
2019-03-02T04:14:07.969Z,0.00
2019-03-02T04:15:08.022Z,0.00
2019-03-02T04:16:08.059Z,0.00
2019-03-02T04:17:08.134Z,0.00
2019-03-02T04:18:08.148Z,0.00
2019-03-02T04:19:08.199Z,0.00
2019-03-02T04:20:12.554Z,0.00
2019-03-02T04:21:08.287Z,0.00
2019-03-02T04:22:08.340Z,0.00
2019-03-02T04:23:08.377Z,0.00
2019-03-02T04:24:08.414Z,0.00
2019-03-02T04:25:12.840Z,0.00
2019-03-02T04:26:08.496Z,0.00
2019-03-02T04:27:11.038Z,0.00
2019-03-02T04:28:08.607Z,0.00
2019-03-02T04:29:10.154Z,0.00
2019-03-02T04:30:08.670Z,0.00
2019-03-02T04:31:09.188Z,0.00
2019-03-02T04:32:08.763Z,0.00
2019-03-02T04:33:08.821Z,0.00
2019-03-02T04:34:08.848Z,0.00
2019-03-02T04:35:09.012Z,0.00
2019-03-02T04:36:10.177Z,0.00
2019-03-02T04:37:08.996Z,0.00
2019-03-02T04:38:09.038Z,0.00
2019-03-02T04:39:09.727Z,0.00
2019-03-02T04:40:09.139Z,0.00
2019-03-02T04:41:09.149Z,0.00
2019-03-02T04:42:11.821Z,0.00
2019-03-02T04:43:09.257Z,0.00
2019-03-02T04:44:09.280Z,0.00
2019-03-02T04:45:09.323Z,0.00
2019-03-02T04:46:11.675Z,0.00
2019-03-02T04:47:09.412Z,0.00
2019-03-02T04:48:09.496Z,0.00
2019-03-02T04:49:10.945Z,0.00
2019-03-02T04:50:09.568Z,0.00
2019-03-02T04:51:09.589Z,0.00
2019-03-02T04:52:11.602Z,0.00
2019-03-02T04:53:09.725Z,0.00
2019-03-02T04:54:09.737Z,0.00
2019-03-02T04:55:13.309Z,0.00
2019-03-02T04:56:09.814Z,0.00
2019-03-02T04:57:09.855Z,0.00
2019-03-02T04:58:11.983Z,0.00
2019-03-02T04:59:09.971Z,0.00
2019-03-02T05:00:09.987Z,0.00
2019-03-02T05:01:10.030Z,0.00
2019-03-02T05:02:10.070Z,0.00
2019-03-02T05:03:10.112Z,0.00
2019-03-02T05:04:10.189Z,0.00
2019-03-02T05:05:10.214Z,0.00
2019-03-02T05:06:10.245Z,0.00
2019-03-02T05:07:10.333Z,0.00
2019-03-02T05:08:10.331Z,0.00
2019-03-02T05:09:13.682Z,0.00
2019-03-02T05:10:10.427Z,0.00
2019-03-02T05:11:10.465Z,0.00
2019-03-02T05:12:11.552Z,0.00
2019-03-02T05:13:10.552Z,0.00
2019-03-02T05:14:10.659Z,0.00
2019-03-02T05:15:11.936Z,0.00
2019-03-02T05:16:10.681Z,0.00
2019-03-02T05:17:10.728Z,0.00
2019-03-02T05:18:10.769Z,0.00
2019-03-02T05:19:10.845Z,0.00
2019-03-02T05:20:10.885Z,0.00
2019-03-02T05:21:10.952Z,0.00
2019-03-02T05:22:10.952Z,0.00
2019-03-02T05:23:11.605Z,0.00
2019-03-02T05:24:11.039Z,0.00
2019-03-02T05:25:11.121Z,0.00
2019-03-02T05:26:11.125Z,0.00
2019-03-02T05:27:11.168Z,0.00
2019-03-02T05:28:11.250Z,0.00
2019-03-02T05:29:11.268Z,0.00
2019-03-02T05:30:11.344Z,0.00
2019-03-02T05:31:11.340Z,0.00
2019-03-02T05:32:12.600Z,0.00
2019-03-02T05:33:11.425Z,0.00
2019-03-02T05:34:11.479Z,0.00
2019-03-02T05:35:11.980Z,0.00
2019-03-02T05:36:11.561Z,0.00
2019-03-02T05:37:11.603Z,0.00
2019-03-02T05:38:11.726Z,0.00
2019-03-02T05:39:13.901Z,0.00
2019-03-02T05:40:11.771Z,0.00
2019-03-02T05:41:11.782Z,0.00
2019-03-02T05:42:13.616Z,0.00
2019-03-02T05:43:11.867Z,0.00
2019-03-02T05:44:11.915Z,0.00
2019-03-02T05:45:11.989Z,0.00
2019-03-02T05:46:12.079Z,0.00
2019-03-02T05:47:12.046Z,0.00
2019-03-02T05:48:12.087Z,0.00
2019-03-02T05:49:12.129Z,0.00
2019-03-02T05:50:12.200Z,0.00
2019-03-02T05:51:12.248Z,0.00
2019-03-02T05:52:14.562Z,0.00
2019-03-02T05:53:12.314Z,0.00
2019-03-02T05:54:12.353Z,0.00
2019-03-02T05:55:14.268Z,0.00
2019-03-02T05:56:12.492Z,0.00
2019-03-02T05:57:12.484Z,0.00
2019-03-02T05:58:15.652Z,0.00
2019-03-02T05:59:12.566Z,0.00
2019-03-02T06:00:12.609Z,0.00
2019-03-02T06:01:12.686Z,0.00
2019-03-02T06:02:13.909Z,0.00
2019-03-02T06:03:12.801Z,0.00
2019-03-02T06:04:12.822Z,0.00
2019-03-02T06:05:12.828Z,0.00
2019-03-02T06:06:12.895Z,0.00
2019-03-02T06:07:12.915Z,5.63
2019-03-02T06:08:12.963Z,5.63
2019-03-02T06:09:14.704Z,5.63
2019-03-02T06:10:13.741Z,5.63
2019-03-02T06:11:13.127Z,5.63
2019-03-02T06:12:15.563Z,5.63
2019-03-02T06:13:13.184Z,5.63
2019-03-02T06:14:13.221Z,5.63
2019-03-02T06:15:13.276Z,5.63
2019-03-02T06:16:15.281Z,5.63
2019-03-02T06:17:13.358Z,11.25
2019-03-02T06:18:13.396Z,11.25
2019-03-02T06:19:13.444Z,11.25
2019-03-02T06:20:13.493Z,11.25
2019-03-02T06:21:13.530Z,11.25
2019-03-02T06:22:13.636Z,11.25
2019-03-02T06:23:13.657Z,11.25
2019-03-02T06:24:15.402Z,11.25
2019-03-02T06:25:19.380Z,11.25
2019-03-02T06:26:13.750Z,11.25
2019-03-02T06:27:13.829Z,11.25
2019-03-02T06:28:13.838Z,11.25
2019-03-02T06:29:13.881Z,11.25
2019-03-02T06:30:13.981Z,11.25
2019-03-02T06:31:15.776Z,11.25
2019-03-02T06:32:14.028Z,11.25
2019-03-02T06:33:14.058Z,11.25
2019-03-02T06:34:16.709Z,11.25
2019-03-02T06:35:14.141Z,11.25
2019-03-02T06:36:14.186Z,16.88
2019-03-02T06:37:16.987Z,16.88
2019-03-02T06:38:14.280Z,16.88
2019-03-02T06:39:14.325Z,16.88
2019-03-02T06:40:16.211Z,16.88
2019-03-02T06:41:14.419Z,16.88
2019-03-02T06:42:14.470Z,16.88
2019-03-02T06:43:17.745Z,16.88
2019-03-02T06:44:14.541Z,16.88
2019-03-02T06:45:14.581Z,16.88
2019-03-02T06:46:16.006Z,16.88
2019-03-02T06:47:14.695Z,22.50
2019-03-02T06:48:14.740Z,22.50
2019-03-02T06:49:16.755Z,22.50
2019-03-02T06:50:14.806Z,28.13
2019-03-02T06:51:14.862Z,28.13
2019-03-02T06:52:14.894Z,28.13
2019-03-02T06:53:14.967Z,28.13
2019-03-02T06:54:14.983Z,28.13
2019-03-02T06:55:15.155Z,28.13
2019-03-02T06:56:15.791Z,33.75
2019-03-02T06:57:15.152Z,33.75
2019-03-02T06:58:15.200Z,33.75
2019-03-02T06:59:15.201Z,39.38
2019-03-02T07:00:15.250Z,39.38
2019-03-02T07:01:15.291Z,45.00
2019-03-02T07:02:15.363Z,50.63
2019-03-02T07:03:15.411Z,56.25
2019-03-02T07:04:18.043Z,61.88
2019-03-02T07:05:15.453Z,67.50
2019-03-02T07:06:15.508Z,67.50
2019-03-02T07:07:18.531Z,61.88
2019-03-02T07:08:15.651Z,61.88
2019-03-02T07:09:15.634Z,61.88
2019-03-02T07:10:17.887Z,61.88
2019-03-02T07:11:15.788Z,61.88
2019-03-02T07:12:15.782Z,56.25
2019-03-02T07:13:17.828Z,56.25
2019-03-02T07:14:16.241Z,56.25
2019-03-02T07:15:15.917Z,56.25
2019-03-02T07:16:16.600Z,56.25
2019-03-02T07:17:16.871Z,61.88
2019-03-02T07:18:16.084Z,61.88
2019-03-02T07:19:16.768Z,67.50
2019-03-02T07:20:16.113Z,67.50
2019-03-02T07:21:16.199Z,73.13
2019-03-02T07:22:16.836Z,73.13
2019-03-02T07:23:16.270Z,73.13
2019-03-02T07:24:16.311Z,73.13
2019-03-02T07:25:16.390Z,73.13
2019-03-02T07:26:19.734Z,78.75
2019-03-02T07:27:16.425Z,78.75
2019-03-02T07:28:16.468Z,84.38
2019-03-02T07:29:17.670Z,84.38
2019-03-02T07:30:16.552Z,90.00
2019-03-02T07:31:16.603Z,95.63
2019-03-02T07:32:16.655Z,101.25
2019-03-02T07:33:16.696Z,101.25
2019-03-02T07:34:16.806Z,101.25
2019-03-02T07:35:19.403Z,101.25
2019-03-02T07:36:16.817Z,106.88
2019-03-02T07:37:16.860Z,106.88
2019-03-02T07:38:19.946Z,112.50
2019-03-02T07:39:17.042Z,118.13
2019-03-02T07:40:16.992Z,118.13
2019-03-02T07:41:18.722Z,112.50
2019-03-02T07:42:17.087Z,112.50
2019-03-02T07:43:17.141Z,112.50
2019-03-02T07:44:18.871Z,112.50
2019-03-02T07:45:17.226Z,118.13
2019-03-02T07:46:17.258Z,129.38
2019-03-02T07:47:20.569Z,135.00
2019-03-02T07:48:17.356Z,140.63
2019-03-02T07:49:17.408Z,146.25
2019-03-02T07:50:17.462Z,146.25
2019-03-02T07:51:17.471Z,135.00
2019-03-02T07:52:18.526Z,135.00
2019-03-02T07:53:17.611Z,123.75
2019-03-02T07:54:17.633Z,123.75
2019-03-02T07:55:19.077Z,123.75
2019-03-02T07:56:17.702Z,123.75
2019-03-02T07:57:17.745Z,123.75
2019-03-02T07:58:19.727Z,123.75
2019-03-02T07:59:17.825Z,123.75
2019-03-02T08:00:17.908Z,123.75
2019-03-02T08:01:17.922Z,123.75
2019-03-02T08:02:17.981Z,129.38
2019-03-02T08:03:17.998Z,129.38
2019-03-02T08:04:18.046Z,123.75
2019-03-02T08:05:18.150Z,123.75
2019-03-02T08:06:18.136Z,123.75
2019-03-02T08:07:18.193Z,123.75
2019-03-02T08:08:18.223Z,123.75
2019-03-02T08:09:18.369Z,123.75
2019-03-02T08:10:18.342Z,123.75
2019-03-02T08:11:19.749Z,129.38
2019-03-02T08:12:20.987Z,129.38
2019-03-02T08:13:18.444Z,135.00
2019-03-02T08:14:18.492Z,140.63
2019-03-02T08:15:20.123Z,140.63
2019-03-02T08:16:18.574Z,146.25
2019-03-02T08:17:18.614Z,146.25
2019-03-02T08:18:21.686Z,151.88
2019-03-02T08:19:18.721Z,157.50
2019-03-02T08:20:20.795Z,157.50
2019-03-02T08:21:18.819Z,163.13
2019-03-02T08:22:18.841Z,163.13
2019-03-02T08:23:18.880Z,163.13
2019-03-02T08:24:18.931Z,163.13
2019-03-02T08:25:18.976Z,163.13
2019-03-02T08:26:19.057Z,168.75
2019-03-02T08:27:19.069Z,168.75
2019-03-02T08:28:19.095Z,174.38
2019-03-02T08:29:21.047Z,174.38
2019-03-02T08:30:19.201Z,180.00
2019-03-02T08:31:19.259Z,185.63
2019-03-02T08:32:21.208Z,180.00
2019-03-02T08:33:19.322Z,180.00
2019-03-02T08:34:19.371Z,168.75
2019-03-02T08:35:19.418Z,168.75
2019-03-02T08:36:19.483Z,168.75
2019-03-02T08:37:19.505Z,168.75
2019-03-02T08:38:19.551Z,174.38
2019-03-02T08:39:19.599Z,174.38
2019-03-02T08:40:23.199Z,174.38
2019-03-02T08:41:19.747Z,174.38
2019-03-02T08:42:19.730Z,174.38
2019-03-02T08:43:19.766Z,168.75
2019-03-02T08:44:19.886Z,168.75
2019-03-02T08:45:19.851Z,168.75
2019-03-02T08:46:19.927Z,168.75
2019-03-02T08:47:19.990Z,168.75
2019-03-02T08:48:20.063Z,163.13
2019-03-02T08:49:20.028Z,157.50
2019-03-02T08:50:20.081Z,157.50
2019-03-02T08:51:20.164Z,146.25
2019-03-02T08:52:20.205Z,135.00
2019-03-02T08:53:20.216Z,129.38
2019-03-02T08:54:21.607Z,123.75
2019-03-02T08:55:20.349Z,123.75
2019-03-02T08:56:20.342Z,123.75
2019-03-02T08:57:23.100Z,123.75
2019-03-02T08:58:22.432Z,123.75
2019-03-02T08:59:20.478Z,129.38
2019-03-02T09:00:20.524Z,135.00
2019-03-02T09:01:20.575Z,135.00
2019-03-02T09:02:20.731Z,140.63
2019-03-02T09:03:20.648Z,146.25
2019-03-02T09:04:20.695Z,151.88
2019-03-02T09:05:26.035Z,157.50
2019-03-02T09:06:20.798Z,163.13
2019-03-02T09:07:20.908Z,163.13
2019-03-02T09:08:20.868Z,163.13
2019-03-02T09:09:20.942Z,163.13
2019-03-02T09:10:21.729Z,163.13
2019-03-02T09:11:21.025Z,163.13
2019-03-02T09:12:21.893Z,163.13
2019-03-02T09:13:21.096Z,163.13
2019-03-02T09:14:21.134Z,157.50
2019-03-02T09:15:22.158Z,157.50
2019-03-02T09:16:21.224Z,157.50
2019-03-02T09:17:21.325Z,157.50
2019-03-02T09:18:21.323Z,157.50
2019-03-02T09:19:24.072Z,163.13
2019-03-02T09:20:21.403Z,157.50
2019-03-02T09:21:21.445Z,163.13
2019-03-02T09:22:24.249Z,163.13
2019-03-02T09:23:21.557Z,163.13
2019-03-02T09:24:21.581Z,163.13
2019-03-02T09:25:23.929Z,168.75
2019-03-02T09:26:21.667Z,168.75
2019-03-02T09:27:21.715Z,168.75
2019-03-02T09:28:21.792Z,174.38
2019-03-02T09:29:21.802Z,185.63
2019-03-02T09:30:21.865Z,202.50
2019-03-02T09:31:26.099Z,213.75
2019-03-02T09:32:21.932Z,219.38
2019-03-02T09:33:24.779Z,225.00
2019-03-02T09:34:22.055Z,219.38
2019-03-02T09:35:22.074Z,219.38
2019-03-02T09:36:22.121Z,213.75
2019-03-02T09:37:22.152Z,213.75
2019-03-02T09:38:22.369Z,208.13
2019-03-02T09:39:23.655Z,202.50
2019-03-02T09:40:24.307Z,196.88
2019-03-02T09:41:25.436Z,191.25
2019-03-02T09:42:22.376Z,191.25
2019-03-02T09:43:22.450Z,196.88
2019-03-02T09:44:22.462Z,208.13
2019-03-02T09:45:22.524Z,213.75
2019-03-02T09:46:24.819Z,213.75
2019-03-02T09:47:22.602Z,219.38
2019-03-02T09:48:24.594Z,225.00
2019-03-02T09:49:22.691Z,225.00
2019-03-02T09:50:22.744Z,230.63
2019-03-02T09:51:22.808Z,230.63
2019-03-02T09:52:22.819Z,236.25
2019-03-02T09:53:22.920Z,236.25
2019-03-02T09:54:22.942Z,236.25
2019-03-02T09:55:22.967Z,236.25
2019-03-02T09:56:23.000Z,236.25
2019-03-02T09:57:23.046Z,241.88
2019-03-02T09:58:24.316Z,241.88
2019-03-02T09:59:23.186Z,236.25
2019-03-02T10:00:25.292Z,241.88
2019-03-02T10:01:23.234Z,241.88
2019-03-02T10:02:23.292Z,253.13
2019-03-02T10:03:26.663Z,253.13
2019-03-02T10:04:23.445Z,253.13
2019-03-02T10:05:23.407Z,253.13
2019-03-02T10:06:25.301Z,247.50
2019-03-02T10:07:25.142Z,247.50
2019-03-02T10:08:23.543Z,253.13
2019-03-02T10:09:24.924Z,247.50
2019-03-02T10:10:25.058Z,241.88
2019-03-02T10:11:24.184Z,236.25
2019-03-02T10:12:23.720Z,230.63
2019-03-02T10:13:23.771Z,225.00
2019-03-02T10:14:24.814Z,219.38
2019-03-02T10:15:23.859Z,208.13
2019-03-02T10:16:23.900Z,208.13
2019-03-02T10:17:23.957Z,208.13
2019-03-02T10:18:24.024Z,213.75
2019-03-02T10:19:25.032Z,213.75
2019-03-02T10:20:24.124Z,208.13
2019-03-02T10:21:24.145Z,196.88
2019-03-02T10:22:24.215Z,185.63
2019-03-02T10:23:24.238Z,180.00
2019-03-02T10:24:24.281Z,174.38
2019-03-02T10:25:26.012Z,168.75
2019-03-02T10:26:24.375Z,174.38
2019-03-02T10:27:24.423Z,185.63
2019-03-02T10:28:24.446Z,196.88
2019-03-02T10:29:24.505Z,196.88
2019-03-02T10:30:26.122Z,208.13
2019-03-02T10:31:24.585Z,213.75
2019-03-02T10:32:24.627Z,213.75
2019-03-02T10:33:24.676Z,202.50
2019-03-02T10:34:24.837Z,191.25
2019-03-02T10:35:24.786Z,180.00
2019-03-02T10:36:25.710Z,180.00
2019-03-02T10:37:24.854Z,174.38
2019-03-02T10:38:24.904Z,180.00
2019-03-02T10:39:24.944Z,180.00
2019-03-02T10:40:25.013Z,180.00
2019-03-02T10:41:25.047Z,185.63
2019-03-02T10:42:25.091Z,196.88
2019-03-02T10:43:25.141Z,213.75
2019-03-02T10:44:25.179Z,213.75
2019-03-02T10:45:25.236Z,213.75
2019-03-02T10:46:26.962Z,202.50
2019-03-02T10:47:25.322Z,185.63
2019-03-02T10:48:25.367Z,180.00
2019-03-02T10:49:25.401Z,185.63
2019-03-02T10:50:25.439Z,196.88
2019-03-02T10:51:25.483Z,208.13
2019-03-02T10:52:25.563Z,208.13
2019-03-02T10:53:27.372Z,202.50
2019-03-02T10:54:25.619Z,208.13
2019-03-02T10:55:25.677Z,202.50
2019-03-02T10:56:26.006Z,202.50
2019-03-02T10:57:25.762Z,196.88
2019-03-02T10:58:25.827Z,191.25
2019-03-02T10:59:25.867Z,185.63
2019-03-02T11:00:29.464Z,174.38
2019-03-02T11:01:25.945Z,168.75
2019-03-02T11:02:25.991Z,168.75
2019-03-02T11:03:27.882Z,157.50
2019-03-02T11:04:26.085Z,151.88
2019-03-02T11:05:26.148Z,146.25
2019-03-02T11:06:26.175Z,140.63
2019-03-02T11:07:26.270Z,140.63
2019-03-02T11:08:26.542Z,135.00
2019-03-02T11:09:26.304Z,135.00
2019-03-02T11:10:26.348Z,135.00
2019-03-02T11:11:29.886Z,135.00
2019-03-02T11:12:26.461Z,135.00
2019-03-02T11:13:26.479Z,129.38
2019-03-02T11:14:27.789Z,123.75
2019-03-02T11:15:26.593Z,112.50
2019-03-02T11:16:26.697Z,106.88
2019-03-02T11:17:26.667Z,95.63
2019-03-02T11:18:26.723Z,95.63
2019-03-02T11:19:26.756Z,84.38
2019-03-02T11:20:26.803Z,78.75
2019-03-02T11:21:26.883Z,73.13
2019-03-02T11:22:26.903Z,73.13
2019-03-02T11:23:26.949Z,78.75
2019-03-02T11:24:27.013Z,78.75
2019-03-02T11:25:27.034Z,84.38
2019-03-02T11:26:27.077Z,84.38
2019-03-02T11:27:27.157Z,90.00
2019-03-02T11:28:27.177Z,95.63
2019-03-02T11:29:27.221Z,95.63
2019-03-02T11:30:27.261Z,101.25
2019-03-02T11:31:27.307Z,101.25
2019-03-02T11:32:27.408Z,106.88
2019-03-02T11:33:27.602Z,106.88
2019-03-02T11:34:30.451Z,106.88
2019-03-02T11:35:27.503Z,101.25
2019-03-02T11:36:27.563Z,101.25
2019-03-02T11:37:28.340Z,106.88
2019-03-02T11:38:27.635Z,112.50
2019-03-02T11:39:27.669Z,129.38
2019-03-02T11:40:29.217Z,140.63
2019-03-02T11:41:27.767Z,157.50
2019-03-02T11:42:27.822Z,168.75
2019-03-02T11:43:27.878Z,168.75
2019-03-02T11:44:27.914Z,174.38
2019-03-02T11:45:27.957Z,180.00
2019-03-02T11:46:27.993Z,191.25
2019-03-02T11:47:28.033Z,208.13
2019-03-02T11:48:28.102Z,225.00
2019-03-02T11:49:30.617Z,230.63
2019-03-02T11:50:28.185Z,236.25
2019-03-02T11:51:28.228Z,230.63
2019-03-02T11:52:28.313Z,225.00
2019-03-02T11:53:28.344Z,213.75
2019-03-02T11:54:28.798Z,191.25
2019-03-02T11:55:29.022Z,174.38
2019-03-02T11:56:28.449Z,163.13
2019-03-02T11:57:28.491Z,163.13
2019-03-02T11:58:29.913Z,168.75
2019-03-02T11:59:28.633Z,180.00
2019-03-02T12:00:37.444Z,185.63
2019-03-02T12:01:30.025Z,191.25
2019-03-02T12:02:28.760Z,180.00
2019-03-02T12:03:28.770Z,174.38
2019-03-02T12:04:28.837Z,163.13
2019-03-02T12:05:29.472Z,163.13
2019-03-02T12:06:28.910Z,163.13
2019-03-02T12:07:28.955Z,163.13
2019-03-02T12:08:28.997Z,163.13
2019-03-02T12:09:29.710Z,163.13
2019-03-02T12:10:30.310Z,168.75
2019-03-02T12:11:31.233Z,168.75
2019-03-02T12:12:29.208Z,174.38
2019-03-02T12:13:31.499Z,180.00
2019-03-02T12:14:29.316Z,191.25
2019-03-02T12:15:29.370Z,196.88
2019-03-02T12:16:29.403Z,208.13
2019-03-02T12:17:29.421Z,213.75
2019-03-02T12:18:29.466Z,230.63
2019-03-02T12:19:29.855Z,258.75
2019-03-02T12:20:29.556Z,270.00
2019-03-02T12:21:29.621Z,270.00
2019-03-02T12:22:30.289Z,258.75
2019-03-02T12:23:29.689Z,241.88
2019-03-02T12:24:29.771Z,225.00
2019-03-02T12:25:31.130Z,225.00
2019-03-02T12:26:29.843Z,225.00
2019-03-02T12:27:29.884Z,225.00
2019-03-02T12:28:33.079Z,230.63
2019-03-02T12:29:29.991Z,247.50
2019-03-02T12:30:30.039Z,264.38
2019-03-02T12:31:31.954Z,292.50
2019-03-02T12:32:30.106Z,309.38
2019-03-02T12:33:30.165Z,326.25
2019-03-02T12:34:31.011Z,337.50
2019-03-02T12:35:34.458Z,343.13
2019-03-02T12:36:30.326Z,343.13
2019-03-02T12:37:32.946Z,348.75
2019-03-02T12:38:30.433Z,348.75
2019-03-02T12:39:30.472Z,354.38
2019-03-02T12:40:30.506Z,365.63
2019-03-02T12:41:30.551Z,376.88
2019-03-02T12:42:31.840Z,376.88
2019-03-02T12:43:30.617Z,376.88
2019-03-02T12:44:30.688Z,376.88
2019-03-02T12:45:33.603Z,388.13
2019-03-02T12:46:30.785Z,410.63
2019-03-02T12:47:33.296Z,427.50
2019-03-02T12:48:30.916Z,444.38
2019-03-02T12:49:30.905Z,450.00
2019-03-02T12:50:30.943Z,461.25
2019-03-02T12:51:31.004Z,472.50
2019-03-02T12:52:31.086Z,489.38
2019-03-02T12:53:31.082Z,506.25
2019-03-02T12:54:31.125Z,534.38
2019-03-02T12:55:31.179Z,556.88